sensor_id;sensor_type;location;lat;lon;timestamp;pressure;altitude;pressure_sealevel;temperature;humidity
13705;BME280;6924;52.122;9.952;2022-08-06T00:00:47;101300.00;;;13.97;77.59
13705;BME280;6924;52.122;9.952;2022-08-06T00:03:13;101310.16;;;13.89;79.36
13705;BME280;6924;52.122;9.952;2022-08-06T00:05:41;101315.41;;;13.82;80.53
13705;BME280;6924;52.122;9.952;2022-08-06T00:08:08;101309.53;;;13.78;81.20
13705;BME280;6924;52.122;9.952;2022-08-06T00:10:35;101328.59;;;13.64;82.27
13705;BME280;6924;52.122;9.952;2022-08-06T00:13:02;101332.28;;;13.64;82.17
13705;BME280;6924;52.122;9.952;2022-08-06T00:15:28;101336.50;;;13.67;81.79
13705;BME280;6924;52.122;9.952;2022-08-06T00:17:55;101327.97;;;13.67;81.84
13705;BME280;6924;52.122;9.952;2022-08-06T00:20:21;101323.97;;;13.68;81.77
13705;BME280;6924;52.122;9.952;2022-08-06T00:22:49;101319.25;;;13.50;80.98
13705;BME280;6924;52.122;9.952;2022-08-06T00:25:16;101327.69;;;13.41;81.57
13705;BME280;6924;52.122;9.952;2022-08-06T00:27:42;101330.59;;;13.36;81.98
13705;BME280;6924;52.122;9.952;2022-08-06T00:30:09;101328.69;;;13.31;82.48
13705;BME280;6924;52.122;9.952;2022-08-06T00:32:36;101333.56;;;13.31;82.56
13705;BME280;6924;52.122;9.952;2022-08-06T00:35:04;101337.00;;;13.28;82.63
13705;BME280;6924;52.122;9.952;2022-08-06T00:37:31;101338.03;;;13.18;83.16
13705;BME280;6924;52.122;9.952;2022-08-06T00:39:59;101341.50;;;13.15;83.11
13705;BME280;6924;52.122;9.952;2022-08-06T00:42:26;101341.09;;;13.21;82.90
13705;BME280;6924;52.122;9.952;2022-08-06T00:44:53;101347.41;;;13.18;82.43
13705;BME280;6924;52.122;9.952;2022-08-06T00:47:20;101346.97;;;13.11;81.53
13705;BME280;6924;52.122;9.952;2022-08-06T00:49:46;101346.44;;;13.09;80.76
13705;BME280;6924;52.122;9.952;2022-08-06T00:52:13;101353.28;;;13.08;80.95
13705;BME280;6924;52.122;9.952;2022-08-06T00:54:39;101352.31;;;12.99;81.59
13705;BME280;6924;52.122;9.952;2022-08-06T00:57:07;101349.88;;;12.92;82.91
13705;BME280;6924;52.122;9.952;2022-08-06T00:59:34;101350.34;;;12.80;83.03
13705;BME280;6924;52.122;9.952;2022-08-06T01:02:00;101350.34;;;12.80;83.50
13705;BME280;6924;52.122;9.952;2022-08-06T01:04:27;101352.13;;;12.76;83.29
13705;BME280;6924;52.122;9.952;2022-08-06T01:06:53;101345.94;;;12.74;83.85
13705;BME280;6924;52.122;9.952;2022-08-06T01:09:19;101362.34;;;12.77;83.32
13705;BME280;6924;52.122;9.952;2022-08-06T01:11:46;101357.72;;;12.68;83.65
13705;BME280;6924;52.122;9.952;2022-08-06T01:14:14;101362.22;;;12.69;83.70
13705;BME280;6924;52.122;9.952;2022-08-06T01:16:46;101369.91;;;12.68;84.46
13705;BME280;6924;52.122;9.952;2022-08-06T01:19:51;101375.34;;;12.65;84.98
13705;BME280;6924;52.122;9.952;2022-08-06T01:22:32;101376.81;;;12.62;85.14
13705;BME280;6924;52.122;9.952;2022-08-06T01:27:56;101388.25;;;12.38;83.12
13705;BME280;6924;52.122;9.952;2022-08-06T01:30:29;101383.78;;;12.32;85.26
13705;BME280;6924;52.122;9.952;2022-08-06T01:33:00;101388.09;;;12.29;85.29
13705;BME280;6924;52.122;9.952;2022-08-06T01:35:30;101373.75;;;12.39;84.60
13705;BME280;6924;52.122;9.952;2022-08-06T01:38:03;101377.13;;;12.42;84.52
13705;BME280;6924;52.122;9.952;2022-08-06T01:40:32;101366.63;;;12.42;84.78
13705;BME280;6924;52.122;9.952;2022-08-06T01:43:05;101376.06;;;12.37;85.40
13705;BME280;6924;52.122;9.952;2022-08-06T01:45:33;101376.06;;;12.37;84.47
13705;BME280;6924;52.122;9.952;2022-08-06T01:48:05;101370.69;;;12.36;84.07
13705;BME280;6924;52.122;9.952;2022-08-06T01:50:35;101384.50;;;12.24;85.03
13705;BME280;6924;52.122;9.952;2022-08-06T01:53:03;101386.56;;;12.18;85.20
13705;BME280;6924;52.122;9.952;2022-08-06T01:55:35;101391.06;;;12.19;84.86
13705;BME280;6924;52.122;9.952;2022-08-06T01:58:05;101391.97;;;11.95;86.63
13705;BME280;6924;52.122;9.952;2022-08-06T02:00:37;101384.56;;;11.99;86.14
13705;BME280;6924;52.122;9.952;2022-08-06T02:03:09;101383.94;;;12.03;85.27
13705;BME280;6924;52.122;9.952;2022-08-06T02:05:38;101380.81;;;12.04;84.92
13705;BME280;6924;52.122;9.952;2022-08-06T02:08:07;101378.94;;;11.94;84.95
13705;BME280;6924;52.122;9.952;2022-08-06T02:10:36;101379.56;;;11.91;86.09
13705;BME280;6924;52.122;9.952;2022-08-06T02:13:04;101388.91;;;11.92;86.16
13705;BME280;6924;52.122;9.952;2022-08-06T02:15:32;101374.19;;;11.90;86.47
13705;BME280;6924;52.122;9.952;2022-08-06T02:18:01;101380.41;;;11.92;86.63
13705;BME280;6924;52.122;9.952;2022-08-06T02:20:32;101389.53;;;11.89;87.43
13705;BME280;6924;52.122;9.952;2022-08-06T02:22:59;101377.06;;;11.85;86.55
13705;BME280;6924;52.122;9.952;2022-08-06T02:25:30;101387.03;;;11.82;86.81
13705;BME280;6924;52.122;9.952;2022-08-06T02:27:59;101402.25;;;11.91;85.79
13705;BME280;6924;52.122;9.952;2022-08-06T02:30:33;101398.88;;;11.89;87.60
13705;BME280;6924;52.122;9.952;2022-08-06T02:33:01;101401.75;;;11.84;87.73
13705;BME280;6924;52.122;9.952;2022-08-06T02:35:29;101407.53;;;11.74;88.92
13705;BME280;6924;52.122;9.952;2022-08-06T02:38:01;101394.09;;;11.61;90.35
13705;BME280;6924;52.122;9.952;2022-08-06T02:40:34;101400.47;;;11.71;89.93
13705;BME280;6924;52.122;9.952;2022-08-06T02:43:04;101406.44;;;11.70;89.94
13705;BME280;6924;52.122;9.952;2022-08-06T02:45:37;101414.00;;;11.79;89.65
13705;BME280;6924;52.122;9.952;2022-08-06T02:48:10;101415.75;;;11.75;89.99
13705;BME280;6924;52.122;9.952;2022-08-06T02:50:40;101418.94;;;11.69;90.28
13705;BME280;6924;52.122;9.952;2022-08-06T02:53:09;101417.19;;;11.73;89.13
13705;BME280;6924;52.122;9.952;2022-08-06T02:55:39;101425.16;;;11.71;89.34
13705;BME280;6924;52.122;9.952;2022-08-06T02:58:12;101417.41;;;11.76;89.14
13705;BME280;6924;52.122;9.952;2022-08-06T03:00:42;101413.13;;;11.79;88.74
13705;BME280;6924;52.122;9.952;2022-08-06T03:03:13;101420.03;;;11.73;89.31
13705;BME280;6924;52.122;9.952;2022-08-06T03:05:42;101429.94;;;11.70;88.83
13705;BME280;6924;52.122;9.952;2022-08-06T03:08:14;101435.63;;;11.70;88.75
13705;BME280;6924;52.122;9.952;2022-08-06T03:10:42;101434.00;;;11.64;89.41
13705;BME280;6924;52.122;9.952;2022-08-06T03:13:10;101440.53;;;11.65;89.26
13705;BME280;6924;52.122;9.952;2022-08-06T03:15:39;101434.31;;;11.63;89.69
13705;BME280;6924;52.122;9.952;2022-08-06T03:18:07;101441.28;;;11.46;90.56
13705;BME280;6924;52.122;9.952;2022-08-06T03:20:35;101444.22;;;11.36;92.15
13705;BME280;6924;52.122;9.952;2022-08-06T03:23:04;101452.41;;;11.37;91.36
13705;BME280;6924;52.122;9.952;2022-08-06T03:25:32;101447.69;;;11.28;91.57
13705;BME280;6924;52.122;9.952;2022-08-06T03:28:00;101446.72;;;11.13;92.98
13705;BME280;6924;52.122;9.952;2022-08-06T03:30:27;101446.94;;;11.17;92.07
13705;BME280;6924;52.122;9.952;2022-08-06T03:32:55;101450.63;;;11.17;92.01
13705;BME280;6924;52.122;9.952;2022-08-06T03:35:23;101454.66;;;11.11;92.18
13705;BME280;6924;52.122;9.952;2022-08-06T03:37:52;101446.38;;;11.20;92.27
13705;BME280;6924;52.122;9.952;2022-08-06T03:40:20;101451.72;;;11.22;91.87
13705;BME280;6924;52.122;9.952;2022-08-06T03:42:47;101457.19;;;11.13;93.25
13705;BME280;6924;52.122;9.952;2022-08-06T03:45:14;101463.16;;;11.11;93.03
13705;BME280;6924;52.122;9.952;2022-08-06T03:47:42;101463.78;;;11.03;92.60
13705;BME280;6924;52.122;9.952;2022-08-06T03:50:11;101474.22;;;11.08;92.60
13705;BME280;6924;52.122;9.952;2022-08-06T03:52:44;101474.38;;;11.22;91.18
13705;BME280;6924;52.122;9.952;2022-08-06T03:55:14;101470.66;;;11.26;90.07
13705;BME280;6924;52.122;9.952;2022-08-06T03:57:43;101474.53;;;11.35;89.44
13705;BME280;6924;52.122;9.952;2022-08-06T04:00:12;101479.94;;;11.32;89.27
13705;BME280;6924;52.122;9.952;2022-08-06T04:02:45;101484.22;;;11.29;90.11
13705;BME280;6924;52.122;9.952;2022-08-06T04:05:15;101485.63;;;11.32;90.43
13705;BME280;6924;52.122;9.952;2022-08-06T04:07:44;101487.41;;;11.23;90.70
13705;BME280;6924;52.122;9.952;2022-08-06T04:10:12;101492.88;;;11.14;91.02
13705;BME280;6924;52.122;9.952;2022-08-06T04:12:42;101494.31;;;11.06;91.32
13705;BME280;6924;52.122;9.952;2022-08-06T04:15:11;101506.13;;;11.19;90.86
13705;BME280;6924;52.122;9.952;2022-08-06T04:17:39;101509.50;;;11.21;90.49
13705;BME280;6924;52.122;9.952;2022-08-06T04:20:08;101515.50;;;11.14;90.62
13705;BME280;6924;52.122;9.952;2022-08-06T04:22:36;101518.03;;;11.15;89.80
13705;BME280;6924;52.122;9.952;2022-08-06T04:25:05;101517.28;;;11.05;90.01
13705;BME280;6924;52.122;9.952;2022-08-06T04:27:34;101518.91;;;11.11;89.47
13705;BME280;6924;52.122;9.952;2022-08-06T04:30:01;101531.72;;;11.03;90.57
13705;BME280;6924;52.122;9.952;2022-08-06T04:32:29;101528.28;;;11.11;89.79
13705;BME280;6924;52.122;9.952;2022-08-06T04:34:58;101530.78;;;11.13;89.65
13705;BME280;6924;52.122;9.952;2022-08-06T04:37:27;101533.56;;;11.23;90.90
13705;BME280;6924;52.122;9.952;2022-08-06T04:39:54;101528.72;;;11.29;90.60
13705;BME280;6924;52.122;9.952;2022-08-06T04:42:23;101537.16;;;11.34;90.51
13705;BME280;6924;52.122;9.952;2022-08-06T04:44:50;101539.44;;;11.32;91.70
13705;BME280;6924;52.122;9.952;2022-08-06T04:47:18;101543.91;;;11.38;92.20
13705;BME280;6924;52.122;9.952;2022-08-06T04:49:44;101544.69;;;11.49;91.22
13705;BME280;6924;52.122;9.952;2022-08-06T04:52:20;101544.34;;;11.50;92.30
13705;BME280;6924;52.122;9.952;2022-08-06T04:54:46;101545.72;;;11.58;91.75
13705;BME280;6924;52.122;9.952;2022-08-06T04:57:13;101549.03;;;11.65;91.21
13705;BME280;6924;52.122;9.952;2022-08-06T04:59:41;101554.97;;;11.69;91.77
13705;BME280;6924;52.122;9.952;2022-08-06T05:02:07;101552.63;;;11.76;92.13
13705;BME280;6924;52.122;9.952;2022-08-06T05:04:34;101548.59;;;11.82;90.70
13705;BME280;6924;52.122;9.952;2022-08-06T05:07:06;101558.47;;;11.90;90.42
13705;BME280;6924;52.122;9.952;2022-08-06T05:09:36;101565.47;;;11.97;89.86
13705;BME280;6924;52.122;9.952;2022-08-06T05:12:06;101565.78;;;11.96;91.22
13705;BME280;6924;52.122;9.952;2022-08-06T05:14:37;101571.63;;;12.05;91.32
13705;BME280;6924;52.122;9.952;2022-08-06T05:17:09;101578.69;;;12.07;90.63
13705;BME280;6924;52.122;9.952;2022-08-06T05:19:42;101571.53;;;12.15;91.54
13705;BME280;6924;52.122;9.952;2022-08-06T05:22:10;101575.19;;;12.15;92.61
13705;BME280;6924;52.122;9.952;2022-08-06T05:24:40;101573.63;;;12.28;93.33
13705;BME280;6924;52.122;9.952;2022-08-06T05:27:09;101583.16;;;12.37;92.39
13705;BME280;6924;52.122;9.952;2022-08-06T05:29:35;101586.47;;;12.45;91.54
13705;BME280;6924;52.122;9.952;2022-08-06T05:32:03;101587.56;;;12.49;90.89
13705;BME280;6924;52.122;9.952;2022-08-06T05:34:32;101588.31;;;12.54;90.67
13705;BME280;6924;52.122;9.952;2022-08-06T05:36:58;101588.81;;;12.61;90.77
13705;BME280;6924;52.122;9.952;2022-08-06T05:39:25;101587.00;;;12.71;91.72
13705;BME280;6924;52.122;9.952;2022-08-06T05:41:51;101584.63;;;12.78;92.79
13705;BME280;6924;52.122;9.952;2022-08-06T05:44:18;101580.03;;;12.82;91.64
13705;BME280;6924;52.122;9.952;2022-08-06T05:46:49;101585.94;;;12.86;93.59
13705;BME280;6924;52.122;9.952;2022-08-06T05:49:20;101589.09;;;13.03;95.00
13705;BME280;6924;52.122;9.952;2022-08-06T05:51:52;101594.41;;;13.10;94.30
13705;BME280;6924;52.122;9.952;2022-08-06T05:54:23;101601.91;;;13.19;92.88
13705;BME280;6924;52.122;9.952;2022-08-06T05:56:58;101598.38;;;13.28;93.75
13705;BME280;6924;52.122;9.952;2022-08-06T05:59:28;101590.25;;;13.40;95.43
13705;BME280;6924;52.122;9.952;2022-08-06T06:01:57;101601.38;;;13.55;94.55
13705;BME280;6924;52.122;9.952;2022-08-06T06:04:24;101600.53;;;13.55;94.63
13705;BME280;6924;52.122;9.952;2022-08-06T06:06:53;101603.41;;;13.69;93.36
13705;BME280;6924;52.122;9.952;2022-08-06T06:09:19;101597.44;;;13.84;91.20
13705;BME280;6924;52.122;9.952;2022-08-06T06:11:47;101595.25;;;13.95;91.38
13705;BME280;6924;52.122;9.952;2022-08-06T06:14:27;101599.31;;;14.08;90.10
13705;BME280;6924;52.122;9.952;2022-08-06T06:17:16;101605.75;;;14.13;89.64
13705;BME280;6924;52.122;9.952;2022-08-06T06:19:51;101609.22;;;14.24;89.84
13705;BME280;6924;52.122;9.952;2022-08-06T06:22:27;101604.50;;;14.33;88.46
13705;BME280;6924;52.122;9.952;2022-08-06T06:24:59;101603.63;;;14.33;84.18
13705;BME280;6924;52.122;9.952;2022-08-06T06:27:32;101601.97;;;14.45;85.45
13705;BME280;6924;52.122;9.952;2022-08-06T06:30:02;101606.22;;;14.62;85.52
13705;BME280;6924;52.122;9.952;2022-08-06T06:32:38;101606.31;;;14.84;83.17
13705;BME280;6924;52.122;9.952;2022-08-06T06:35:15;101602.72;;;14.93;81.26
13705;BME280;6924;52.122;9.952;2022-08-06T06:37:49;101610.69;;;15.04;82.17
13705;BME280;6924;52.122;9.952;2022-08-06T06:40:28;101607.84;;;15.04;79.09
13705;BME280;6924;52.122;9.952;2022-08-06T06:43:02;101609.53;;;15.05;78.92
13705;BME280;6924;52.122;9.952;2022-08-06T06:45:33;101612.50;;;15.00;79.50
13705;BME280;6924;52.122;9.952;2022-08-06T06:48:13;101608.13;;;15.17;79.54
13705;BME280;6924;52.122;9.952;2022-08-06T06:50:45;101609.50;;;15.19;79.91
13705;BME280;6924;52.122;9.952;2022-08-06T06:53:14;101619.50;;;15.31;79.53
13705;BME280;6924;52.122;9.952;2022-08-06T06:55:44;101620.28;;;15.45;78.15
13705;BME280;6924;52.122;9.952;2022-08-06T06:58:28;101619.00;;;15.51;78.55
13705;BME280;6924;52.122;9.952;2022-08-06T07:01:13;101615.31;;;15.50;77.35
13705;BME280;6924;52.122;9.952;2022-08-06T07:03:44;101624.03;;;15.54;76.34
13705;BME280;6924;52.122;9.952;2022-08-06T07:06:18;101623.41;;;15.57;77.12
13705;BME280;6924;52.122;9.952;2022-08-06T07:08:48;101632.22;;;15.69;75.95
13705;BME280;6924;52.122;9.952;2022-08-06T07:11:20;101629.34;;;15.83;75.31
13705;BME280;6924;52.122;9.952;2022-08-06T07:14:03;101630.84;;;15.81;75.71
13705;BME280;6924;52.122;9.952;2022-08-06T07:16:34;101635.75;;;15.89;75.23
13705;BME280;6924;52.122;9.952;2022-08-06T07:19:09;101641.03;;;16.04;73.65
13705;BME280;6924;52.122;9.952;2022-08-06T07:21:43;101625.84;;;16.18;75.79
13705;BME280;6924;52.122;9.952;2022-08-06T07:24:23;101635.75;;;16.20;73.28
13705;BME280;6924;52.122;9.952;2022-08-06T07:27:04;101640.72;;;16.06;73.35
13705;BME280;6924;52.122;9.952;2022-08-06T07:29:39;101644.69;;;16.19;75.32
13705;BME280;6924;52.122;9.952;2022-08-06T07:32:17;101646.59;;;16.32;73.44
13705;BME280;6924;52.122;9.952;2022-08-06T07:34:50;101644.31;;;16.43;74.00
13705;BME280;6924;52.122;9.952;2022-08-06T07:37:22;101648.88;;;16.21;72.81
13705;BME280;6924;52.122;9.952;2022-08-06T07:39:57;101651.16;;;16.10;73.89
13705;BME280;6924;52.122;9.952;2022-08-06T07:42:32;101657.06;;;16.14;74.91
13705;BME280;6924;52.122;9.952;2022-08-06T07:45:12;101655.47;;;16.30;74.52
13705;BME280;6924;52.122;9.952;2022-08-06T07:47:50;101657.53;;;16.39;72.28
13705;BME280;6924;52.122;9.952;2022-08-06T07:50:23;101650.72;;;16.57;73.61
13705;BME280;6924;52.122;9.952;2022-08-06T07:52:57;101656.00;;;16.72;70.45
13705;BME280;6924;52.122;9.952;2022-08-06T07:55:32;101657.78;;;16.82;69.76
13705;BME280;6924;52.122;9.952;2022-08-06T07:58:00;101665.28;;;16.78;69.61
13705;BME280;6924;52.122;9.952;2022-08-06T08:00:31;101658.69;;;16.78;69.89
13705;BME280;6924;52.122;9.952;2022-08-06T08:03:06;101659.31;;;16.97;68.78
13705;BME280;6924;52.122;9.952;2022-08-06T08:05:56;101664.50;;;16.95;70.29
13705;BME280;6924;52.122;9.952;2022-08-06T08:08:41;101669.88;;;16.88;68.43
13705;BME280;6924;52.122;9.952;2022-08-06T08:11:18;101671.72;;;16.92;68.51
13705;BME280;6924;52.122;9.952;2022-08-06T08:13:59;101670.09;;;17.00;69.55
13705;BME280;6924;52.122;9.952;2022-08-06T08:16:44;101676.09;;;16.90;67.44
13705;BME280;6924;52.122;9.952;2022-08-06T08:19:19;101674.81;;;17.05;67.19
13705;BME280;6924;52.122;9.952;2022-08-06T08:21:47;101676.84;;;17.22;67.76
13705;BME280;6924;52.122;9.952;2022-08-06T08:24:13;101674.50;;;17.32;64.90
13705;BME280;6924;52.122;9.952;2022-08-06T08:26:42;101681.25;;;17.37;67.33
13705;BME280;6924;52.122;9.952;2022-08-06T08:29:10;101678.25;;;17.42;66.56
13705;BME280;6924;52.122;9.952;2022-08-06T08:31:36;101674.53;;;17.50;66.10
13705;BME280;6924;52.122;9.952;2022-08-06T08:34:03;101669.00;;;17.45;64.12
13705;BME280;6924;52.122;9.952;2022-08-06T08:36:30;101676.75;;;17.53;65.12
13705;BME280;6924;52.122;9.952;2022-08-06T08:38:57;101674.53;;;17.67;64.32
13705;BME280;6924;52.122;9.952;2022-08-06T08:41:26;101668.13;;;17.79;64.08
13705;BME280;6924;52.122;9.952;2022-08-06T08:43:58;101677.72;;;17.66;62.27
13705;BME280;6924;52.122;9.952;2022-08-06T08:46:26;101672.53;;;17.59;61.87
13705;BME280;6924;52.122;9.952;2022-08-06T08:48:55;101676.72;;;17.35;61.79
13705;BME280;6924;52.122;9.952;2022-08-06T08:51:24;101678.59;;;17.49;64.29
13705;BME280;6924;52.122;9.952;2022-08-06T08:53:53;101672.84;;;17.40;63.09
13705;BME280;6924;52.122;9.952;2022-08-06T08:56:21;101675.38;;;17.59;62.76
13705;BME280;6924;52.122;9.952;2022-08-06T08:58:48;101686.50;;;17.69;61.33
13705;BME280;6924;52.122;9.952;2022-08-06T09:01:16;101678.44;;;17.80;59.88
13705;BME280;6924;52.122;9.952;2022-08-06T09:03:44;101678.75;;;17.79;58.08
13705;BME280;6924;52.122;9.952;2022-08-06T09:06:11;101684.84;;;17.68;58.85
13705;BME280;6924;52.122;9.952;2022-08-06T09:08:39;101684.66;;;17.73;60.42
13705;BME280;6924;52.122;9.952;2022-08-06T09:11:06;101689.41;;;17.87;62.24
13705;BME280;6924;52.122;9.952;2022-08-06T09:13:33;101684.19;;;17.89;60.80
13705;BME280;6924;52.122;9.952;2022-08-06T09:16:00;101679.63;;;17.88;59.33
13705;BME280;6924;52.122;9.952;2022-08-06T09:18:28;101688.38;;;17.91;59.01
13705;BME280;6924;52.122;9.952;2022-08-06T09:20:55;101682.66;;;17.83;57.35
13705;BME280;6924;52.122;9.952;2022-08-06T09:23:22;101684.16;;;17.71;56.79
13705;BME280;6924;52.122;9.952;2022-08-06T09:25:50;101676.56;;;17.75;59.30
13705;BME280;6924;52.122;9.952;2022-08-06T09:28:28;101677.44;;;17.85;59.22
13705;BME280;6924;52.122;9.952;2022-08-06T09:30:59;101683.66;;;17.95;58.70
13705;BME280;6924;52.122;9.952;2022-08-06T09:33:29;101682.81;;;18.12;59.26
13705;BME280;6924;52.122;9.952;2022-08-06T09:36:00;101690.00;;;18.27;58.00
13705;BME280;6924;52.122;9.952;2022-08-06T09:38:28;101680.25;;;18.20;54.42
13705;BME280;6924;52.122;9.952;2022-08-06T09:41:03;101678.56;;;18.18;54.74
13705;BME280;6924;52.122;9.952;2022-08-06T09:43:29;101685.78;;;18.33;56.19
13705;BME280;6924;52.122;9.952;2022-08-06T09:45:56;101677.13;;;18.59;57.96
13705;BME280;6924;52.122;9.952;2022-08-06T09:48:22;101676.91;;;18.65;58.26
13705;BME280;6924;52.122;9.952;2022-08-06T09:50:50;101681.25;;;18.32;53.74
13705;BME280;6924;52.122;9.952;2022-08-06T09:53:17;101686.63;;;18.34;55.57
13705;BME280;6924;52.122;9.952;2022-08-06T09:55:46;101690.19;;;18.31;55.58
13705;BME280;6924;52.122;9.952;2022-08-06T09:58:14;101680.69;;;18.48;55.73
13705;BME280;6924;52.122;9.952;2022-08-06T10:00:51;101672.47;;;18.85;55.30
13705;BME280;6924;52.122;9.952;2022-08-06T10:03:18;101680.38;;;18.96;51.63
13705;BME280;6924;52.122;9.952;2022-08-06T10:05:45;101684.03;;;19.27;54.17
13705;BME280;6924;52.122;9.952;2022-08-06T10:08:14;101675.66;;;19.22;50.08
13705;BME280;6924;52.122;9.952;2022-08-06T10:10:46;101672.31;;;19.40;49.29
13705;BME280;6924;52.122;9.952;2022-08-06T10:13:16;101673.16;;;19.62;50.34
13705;BME280;6924;52.122;9.952;2022-08-06T10:15:43;101674.28;;;19.49;49.95
13705;BME280;6924;52.122;9.952;2022-08-06T10:18:17;101672.31;;;19.61;50.21
13705;BME280;6924;52.122;9.952;2022-08-06T10:21:03;101667.19;;;19.76;50.81
13705;BME280;6924;52.122;9.952;2022-08-06T10:23:33;101658.03;;;19.95;50.47
13705;BME280;6924;52.122;9.952;2022-08-06T10:26:02;101668.66;;;20.15;49.72
13705;BME280;6924;52.122;9.952;2022-08-06T10:28:29;101667.91;;;20.06;49.14
13705;BME280;6924;52.122;9.952;2022-08-06T10:30:58;101664.72;;;20.20;48.62
13705;BME280;6924;52.122;9.952;2022-08-06T10:33:30;101666.88;;;20.23;49.88
13705;BME280;6924;52.122;9.952;2022-08-06T10:36:01;101664.44;;;20.13;49.14
13705;BME280;6924;52.122;9.952;2022-08-06T10:38:29;101670.72;;;19.94;50.56
13705;BME280;6924;52.122;9.952;2022-08-06T10:41:03;101673.34;;;19.87;50.06
13705;BME280;6924;52.122;9.952;2022-08-06T10:43:34;101662.94;;;19.94;50.89
13705;BME280;6924;52.122;9.952;2022-08-06T10:46:02;101658.63;;;19.88;49.96
13705;BME280;6924;52.122;9.952;2022-08-06T10:48:30;101659.91;;;20.12;50.17
13705;BME280;6924;52.122;9.952;2022-08-06T10:50:57;101658.00;;;20.16;47.04
13705;BME280;6924;52.122;9.952;2022-08-06T10:53:23;101657.28;;;20.19;46.44
13705;BME280;6924;52.122;9.952;2022-08-06T10:55:50;101656.38;;;20.27;47.56
13705;BME280;6924;52.122;9.952;2022-08-06T10:58:18;101657.06;;;19.91;48.14
13705;BME280;6924;52.122;9.952;2022-08-06T11:00:46;101654.41;;;19.86;48.56
13705;BME280;6924;52.122;9.952;2022-08-06T11:03:15;101661.41;;;19.97;47.91
13705;BME280;6924;52.122;9.952;2022-08-06T11:05:48;101665.03;;;20.06;48.39
13705;BME280;6924;52.122;9.952;2022-08-06T11:08:30;101653.09;;;20.16;45.84
13705;BME280;6924;52.122;9.952;2022-08-06T11:11:12;101659.88;;;20.33;46.24
13705;BME280;6924;52.122;9.952;2022-08-06T11:14:00;101654.38;;;20.40;46.18
13705;BME280;6924;52.122;9.952;2022-08-06T11:16:28;101649.28;;;20.58;46.21
13705;BME280;6924;52.122;9.952;2022-08-06T11:19:04;101645.47;;;20.78;43.82
13705;BME280;6924;52.122;9.952;2022-08-06T11:21:39;101637.78;;;20.70;43.51
13705;BME280;6924;52.122;9.952;2022-08-06T11:24:06;101645.88;;;20.56;44.50
13705;BME280;6924;52.122;9.952;2022-08-06T11:26:35;101647.59;;;20.23;45.98
13705;BME280;6924;52.122;9.952;2022-08-06T11:29:04;101650.31;;;19.74;45.07
13705;BME280;6924;52.122;9.952;2022-08-06T11:31:39;101649.63;;;19.69;46.42
13705;BME280;6924;52.122;9.952;2022-08-06T11:34:08;101649.66;;;19.48;48.36
13705;BME280;6924;52.122;9.952;2022-08-06T11:36:53;101646.28;;;19.46;49.26
13705;BME280;6924;52.122;9.952;2022-08-06T11:39:23;101649.03;;;19.63;49.16
13705;BME280;6924;52.122;9.952;2022-08-06T11:41:53;101651.28;;;19.78;47.06
13705;BME280;6924;52.122;9.952;2022-08-06T11:44:22;101644.72;;;19.78;44.84
13705;BME280;6924;52.122;9.952;2022-08-06T11:47:05;101634.88;;;19.79;44.42
13705;BME280;6924;52.122;9.952;2022-08-06T11:49:40;101642.34;;;19.80;47.20
13705;BME280;6924;52.122;9.952;2022-08-06T11:52:07;101645.88;;;19.98;46.13
13705;BME280;6924;52.122;9.952;2022-08-06T11:54:35;101649.50;;;20.07;44.71
13705;BME280;6924;52.122;9.952;2022-08-06T11:57:24;101644.97;;;20.18;43.76
13705;BME280;6924;52.122;9.952;2022-08-06T12:00:24;101653.72;;;20.22;45.32
13705;BME280;6924;52.122;9.952;2022-08-06T12:02:57;101650.63;;;20.27;46.57
13705;BME280;6924;52.122;9.952;2022-08-06T12:05:34;101652.38;;;20.19;44.45
13705;BME280;6924;52.122;9.952;2022-08-06T12:08:25;101651.09;;;20.29;46.32
13705;BME280;6924;52.122;9.952;2022-08-06T12:11:30;101646.72;;;20.56;46.54
13705;BME280;6924;52.122;9.952;2022-08-06T12:13:58;101639.34;;;20.68;43.45
13705;BME280;6924;52.122;9.952;2022-08-06T12:16:28;101639.81;;;20.57;43.50
13705;BME280;6924;52.122;9.952;2022-08-06T12:18:55;101641.81;;;20.44;44.39
13705;BME280;6924;52.122;9.952;2022-08-06T12:21:22;101631.88;;;20.42;46.18
13705;BME280;6924;52.122;9.952;2022-08-06T12:23:50;101630.75;;;20.22;43.56
13705;BME280;6924;52.122;9.952;2022-08-06T12:26:18;101630.34;;;20.11;44.89
13705;BME280;6924;52.122;9.952;2022-08-06T12:28:45;101638.50;;;19.88;44.50
13705;BME280;6924;52.122;9.952;2022-08-06T12:31:12;101642.66;;;19.78;44.48
13705;BME280;6924;52.122;9.952;2022-08-06T12:33:42;101635.03;;;19.83;43.06
13705;BME280;6924;52.122;9.952;2022-08-06T12:36:08;101629.31;;;19.83;44.87
13705;BME280;6924;52.122;9.952;2022-08-06T12:38:35;101634.31;;;19.86;45.37
13705;BME280;6924;52.122;9.952;2022-08-06T12:41:04;101635.84;;;20.04;44.86
13705;BME280;6924;52.122;9.952;2022-08-06T12:43:32;101630.94;;;20.17;43.32
13705;BME280;6924;52.122;9.952;2022-08-06T12:45:59;101635.34;;;20.02;41.51
13705;BME280;6924;52.122;9.952;2022-08-06T12:48:26;101630.09;;;20.04;42.96
13705;BME280;6924;52.122;9.952;2022-08-06T12:51:03;101625.09;;;20.13;43.11
13705;BME280;6924;52.122;9.952;2022-08-06T12:53:31;101624.66;;;19.90;43.02
13705;BME280;6924;52.122;9.952;2022-08-06T12:55:57;101621.50;;;20.04;43.25
13705;BME280;6924;52.122;9.952;2022-08-06T12:58:26;101616.56;;;20.05;42.74
13705;BME280;6924;52.122;9.952;2022-08-06T13:00:57;101614.31;;;20.10;43.01
13705;BME280;6924;52.122;9.952;2022-08-06T13:03:26;101612.41;;;20.14;43.45
13705;BME280;6924;52.122;9.952;2022-08-06T13:05:56;101614.22;;;20.19;43.58
13705;BME280;6924;52.122;9.952;2022-08-06T13:08:26;101611.47;;;20.35;42.72
13705;BME280;6924;52.122;9.952;2022-08-06T13:10:54;101611.03;;;20.33;43.20
13705;BME280;6924;52.122;9.952;2022-08-06T13:13:21;101617.13;;;20.31;43.04
13705;BME280;6924;52.122;9.952;2022-08-06T13:15:59;101613.50;;;20.22;41.73
13705;BME280;6924;52.122;9.952;2022-08-06T13:18:26;101619.69;;;20.12;42.90
13705;BME280;6924;52.122;9.952;2022-08-06T13:20:53;101609.88;;;20.13;43.92